createdAt,value
2019-02-17T00:00:44.897Z,987.10
2019-02-17T00:01:44.915Z,987.11
2019-02-17T00:02:44.884Z,987.23
2019-02-17T00:03:44.860Z,987.13
2019-02-17T00:04:44.856Z,987.05
2019-02-17T00:05:44.856Z,987.13
2019-02-17T00:06:44.835Z,987.03
2019-02-17T00:07:44.859Z,987.09
2019-02-17T00:08:44.811Z,987.16
2019-02-17T00:09:44.797Z,987.16
2019-02-17T00:10:44.799Z,987.19
2019-02-17T00:11:44.778Z,987.19
2019-02-17T00:12:44.772Z,987.07
2019-02-17T00:13:44.795Z,987.09
2019-02-17T00:14:44.743Z,987.24
2019-02-17T00:15:44.739Z,987.15
2019-02-17T00:16:44.731Z,987.27
2019-02-17T00:17:44.716Z,987.12
2019-02-17T00:18:44.704Z,987.19
2019-02-17T00:19:44.727Z,987.12
2019-02-17T00:20:44.679Z,987.20
2019-02-17T00:21:44.669Z,987.09
2019-02-17T00:22:44.667Z,987.15
2019-02-17T00:23:44.651Z,987.21
2019-02-17T00:24:44.643Z,987.17
2019-02-17T00:25:44.668Z,987.26
2019-02-17T00:26:44.619Z,987.27
2019-02-17T00:27:44.607Z,987.24
2019-02-17T00:28:44.602Z,987.29
2019-02-17T00:29:54.826Z,987.23
2019-02-17T00:30:44.580Z,987.26
2019-02-17T00:31:44.577Z,987.26
2019-02-17T00:32:44.558Z,987.27
2019-02-17T00:33:44.545Z,987.27
2019-02-17T00:34:44.548Z,987.14
2019-02-17T00:35:44.524Z,987.27
2019-02-17T00:36:44.546Z,987.28
2019-02-17T00:37:44.517Z,987.37
2019-02-17T00:38:44.497Z,987.35
2019-02-17T00:39:44.486Z,987.49
2019-02-17T00:40:44.473Z,987.53
2019-02-17T00:41:44.465Z,987.46
2019-02-17T00:42:44.495Z,987.49
2019-02-17T00:43:44.440Z,987.49
2019-02-17T00:44:44.429Z,987.50
2019-02-17T00:45:44.420Z,987.51
2019-02-17T00:46:44.412Z,987.51
2019-02-17T00:47:44.396Z,987.48
2019-02-17T00:48:44.410Z,987.61
2019-02-17T00:49:44.383Z,987.48
2019-02-17T00:50:44.370Z,987.56
2019-02-17T00:51:44.360Z,987.52
2019-02-17T00:52:44.346Z,987.68
2019-02-17T00:53:44.405Z,987.57
2019-02-17T00:54:44.334Z,987.55
2019-02-17T00:55:44.315Z,987.57
2019-02-17T00:56:44.310Z,987.63
2019-02-17T00:57:44.292Z,987.57
2019-02-17T00:58:44.286Z,987.65
2019-02-17T00:59:44.315Z,987.73
2019-02-17T01:00:56.128Z,987.68
2019-02-17T01:01:44.255Z,987.58
2019-02-17T01:02:44.260Z,987.58
2019-02-17T01:03:44.232Z,987.75
2019-02-17T01:04:44.227Z,987.60
2019-02-17T01:05:44.267Z,987.51
2019-02-17T01:06:44.207Z,987.53
2019-02-17T01:07:44.197Z,987.48
2019-02-17T01:08:44.202Z,987.46
2019-02-17T01:09:44.169Z,987.56
2019-02-17T01:10:44.166Z,987.52
2019-02-17T01:11:44.210Z,987.37
2019-02-17T01:12:44.147Z,987.52
2019-02-17T01:13:44.143Z,987.57
2019-02-17T01:14:44.118Z,987.55
2019-02-17T01:15:44.112Z,987.59
2019-02-17T01:16:44.104Z,987.68
2019-02-17T01:17:44.107Z,987.50
2019-02-17T01:18:44.081Z,987.51
2019-02-17T01:19:44.069Z,987.57
2019-02-17T01:20:44.060Z,987.68
2019-02-17T01:21:44.049Z,987.55
2019-02-17T01:22:44.033Z,987.43
2019-02-17T01:23:44.203Z,987.44
2019-02-17T01:24:44.014Z,987.50
2019-02-17T01:25:44.014Z,987.46
2019-02-17T01:26:43.997Z,987.63
2019-02-17T01:27:43.984Z,987.55
2019-02-17T01:28:43.970Z,987.58
2019-02-17T01:29:43.984Z,987.38
2019-02-17T01:30:43.948Z,987.47
2019-02-17T01:31:54.141Z,987.40
2019-02-17T01:32:43.929Z,987.46
2019-02-17T01:33:43.923Z,987.42
2019-02-17T01:34:43.912Z,987.41
2019-02-17T01:35:43.934Z,987.55
2019-02-17T01:36:43.896Z,987.45
2019-02-17T01:37:43.880Z,987.45
2019-02-17T01:38:43.870Z,987.54
2019-02-17T01:39:43.863Z,987.41
2019-02-17T01:40:43.852Z,987.44
2019-02-17T01:41:43.848Z,987.48
2019-02-17T01:42:43.830Z,987.46
2019-02-17T01:43:43.813Z,987.48
2019-02-17T01:44:43.836Z,987.46
2019-02-17T01:45:43.795Z,987.41
2019-02-17T01:46:43.989Z,987.46
2019-02-17T01:47:43.775Z,987.39
2019-02-17T01:48:43.766Z,987.46
2019-02-17T01:49:43.754Z,987.49
2019-02-17T01:50:43.748Z,987.55
2019-02-17T01:51:43.728Z,987.54
2019-02-17T01:52:43.760Z,987.56
2019-02-17T01:53:43.712Z,987.53
2019-02-17T01:54:43.707Z,987.57
2019-02-17T01:55:43.691Z,987.58
2019-02-17T01:56:43.681Z,987.52
2019-02-17T01:57:43.671Z,987.56
2019-02-17T01:58:43.678Z,987.73
2019-02-17T01:59:43.652Z,987.49
2019-02-17T02:00:43.637Z,987.54
2019-02-17T02:01:43.628Z,987.57
2019-02-17T02:02:56.114Z,987.66
2019-02-17T02:03:43.601Z,987.69
2019-02-17T02:04:43.609Z,987.58
2019-02-17T02:05:43.583Z,987.68
2019-02-17T02:06:43.576Z,987.59
2019-02-17T02:07:44.195Z,987.66
2019-02-17T02:08:43.555Z,987.71
2019-02-17T02:09:43.544Z,987.71
2019-02-17T02:10:43.585Z,987.75
2019-02-17T02:11:43.522Z,987.70
2019-02-17T02:12:43.511Z,987.78
2019-02-17T02:13:43.504Z,987.72
2019-02-17T02:14:43.489Z,987.72
2019-02-17T02:15:43.488Z,987.68
2019-02-17T02:16:43.504Z,987.77
2019-02-17T02:17:43.456Z,987.65
2019-02-17T02:18:43.448Z,987.60
2019-02-17T02:19:43.432Z,987.62
2019-02-17T02:20:43.422Z,987.73
2019-02-17T02:21:43.423Z,987.72
2019-02-17T02:22:43.438Z,987.84
2019-02-17T02:23:43.396Z,987.78
2019-02-17T02:24:43.380Z,987.78
2019-02-17T02:25:43.377Z,987.88
2019-02-17T02:26:43.359Z,987.79
2019-02-17T02:27:43.353Z,987.73
2019-02-17T02:28:43.382Z,987.86
2019-02-17T02:29:43.333Z,987.79
2019-02-17T02:30:43.318Z,987.86
2019-02-17T02:31:43.311Z,987.79
2019-02-17T02:32:43.300Z,987.72
2019-02-17T02:33:55.238Z,987.72
2019-02-17T02:34:43.316Z,987.77
2019-02-17T02:35:43.271Z,987.87
2019-02-17T02:36:43.255Z,987.82
2019-02-17T02:37:43.245Z,987.71
2019-02-17T02:38:43.248Z,987.84
2019-02-17T02:39:43.230Z,987.83
2019-02-17T02:40:43.258Z,987.90
2019-02-17T02:41:43.218Z,987.87
2019-02-17T02:42:43.194Z,987.82
2019-02-17T02:43:43.185Z,987.93
2019-02-17T02:44:43.170Z,987.98
2019-02-17T02:45:43.168Z,987.88
2019-02-17T02:46:43.269Z,988.02
2019-02-17T02:47:43.144Z,987.82
2019-02-17T02:48:43.130Z,987.78
2019-02-17T02:49:43.135Z,987.92
2019-02-17T02:50:43.709Z,987.97
2019-02-17T02:51:43.102Z,987.97
2019-02-17T02:52:43.141Z,987.98
2019-02-17T02:53:43.075Z,988.00
2019-02-17T02:54:43.072Z,987.98
2019-02-17T02:55:43.057Z,987.97
2019-02-17T02:56:43.048Z,988.01
2019-02-17T02:57:43.044Z,988.05
2019-02-17T02:58:43.061Z,988.06
2019-02-17T02:59:52.133Z,988.05
2019-02-17T03:00:44.005Z,988.01
2019-02-17T03:01:42.998Z,988.07
2019-02-17T03:02:42.984Z,988.09
2019-02-17T03:03:45.882Z,988.07
2019-02-17T03:04:53.932Z,988.11
2019-02-17T03:05:42.957Z,988.04
2019-02-17T03:06:42.943Z,988.04
2019-02-17T03:07:42.930Z,987.99
2019-02-17T03:08:42.919Z,988.11
2019-02-17T03:09:42.918Z,988.09
2019-02-17T03:10:42.936Z,988.09
2019-02-17T03:11:42.889Z,988.03
2019-02-17T03:12:42.893Z,988.14
2019-02-17T03:13:42.867Z,988.17
2019-02-17T03:14:42.856Z,988.20
2019-02-17T03:15:42.844Z,988.28
2019-02-17T03:16:43.010Z,988.12
2019-02-17T03:17:42.842Z,988.20
2019-02-17T03:18:42.819Z,988.20
2019-02-17T03:19:42.806Z,988.31
2019-02-17T03:20:42.793Z,988.11
2019-02-17T03:21:42.789Z,988.31
2019-02-17T03:22:42.785Z,988.14
2019-02-17T03:23:42.834Z,988.17
2019-02-17T03:24:42.752Z,988.22
2019-02-17T03:25:45.089Z,988.33
2019-02-17T03:26:42.736Z,988.33
2019-02-17T03:27:42.757Z,988.29
2019-02-17T03:28:42.715Z,988.21
2019-02-17T03:29:42.719Z,988.19
2019-02-17T03:30:42.690Z,988.23
2019-02-17T03:31:42.679Z,988.21
2019-02-17T03:32:42.677Z,988.23
2019-02-17T03:33:42.828Z,988.27
2019-02-17T03:34:42.648Z,988.28
2019-02-17T03:35:53.493Z,988.32
2019-02-17T03:36:42.625Z,988.27
2019-02-17T03:37:42.616Z,988.38
2019-02-17T03:38:42.608Z,988.34
2019-02-17T03:39:42.664Z,988.42
2019-02-17T03:40:42.592Z,988.30
2019-02-17T03:41:42.571Z,988.38
2019-02-17T03:42:42.562Z,988.26
2019-02-17T03:43:42.571Z,988.43
2019-02-17T03:44:42.539Z,988.52
2019-02-17T03:45:42.568Z,988.54
2019-02-17T03:46:42.524Z,988.47
2019-02-17T03:47:42.513Z,988.40
2019-02-17T03:48:42.516Z,988.39
2019-02-17T03:49:42.493Z,988.49
2019-02-17T03:50:42.500Z,988.43
2019-02-17T03:51:42.639Z,988.55
2019-02-17T03:52:42.456Z,988.48
2019-02-17T03:53:42.447Z,988.52
2019-02-17T03:54:42.440Z,988.50
2019-02-17T03:55:42.429Z,988.43
2019-02-17T03:56:42.421Z,988.38
2019-02-17T03:57:42.441Z,988.66
2019-02-17T03:58:42.402Z,988.62
2019-02-17T03:59:42.384Z,988.59
2019-02-17T04:00:42.387Z,988.53
2019-02-17T04:01:42.363Z,988.61
2019-02-17T04:02:42.352Z,988.43
2019-02-17T04:03:42.382Z,988.58
2019-02-17T04:04:42.337Z,988.53
2019-02-17T04:05:42.320Z,988.63
2019-02-17T04:06:52.895Z,988.66
2019-02-17T04:07:42.303Z,988.69
2019-02-17T04:08:42.292Z,988.55
2019-02-17T04:09:42.317Z,988.62
2019-02-17T04:10:42.267Z,988.61
2019-02-17T04:11:42.803Z,988.59
2019-02-17T04:12:42.248Z,988.57
2019-02-17T04:13:42.233Z,988.77
2019-02-17T04:14:42.232Z,988.66
2019-02-17T04:15:42.254Z,988.67
2019-02-17T04:16:42.207Z,988.61
2019-02-17T04:17:49.184Z,988.61
2019-02-17T04:18:42.185Z,988.65
2019-02-17T04:19:42.179Z,988.52
2019-02-17T04:20:42.174Z,988.65
2019-02-17T04:21:42.169Z,988.54
2019-02-17T04:22:49.127Z,988.56
2019-02-17T04:23:42.131Z,988.69
2019-02-17T04:24:42.145Z,988.71
2019-02-17T04:25:42.119Z,988.66
2019-02-17T04:26:42.134Z,988.71
2019-02-17T04:27:42.094Z,988.58
2019-02-17T04:28:42.078Z,988.68
2019-02-17T04:29:42.073Z,988.43
2019-02-17T04:30:42.065Z,988.65
2019-02-17T04:31:42.050Z,988.55
2019-02-17T04:32:42.074Z,988.66
2019-02-17T04:33:42.026Z,988.72
2019-02-17T04:34:42.015Z,988.80
2019-02-17T04:35:42.030Z,988.73
2019-02-17T04:36:42.002Z,988.69
2019-02-17T04:37:41.983Z,988.70
2019-02-17T04:38:42.014Z,988.71
2019-02-17T04:39:41.969Z,988.82
2019-02-17T04:40:41.951Z,988.81
2019-02-17T04:41:41.960Z,988.68
2019-02-17T04:42:41.962Z,988.81
2019-02-17T04:43:41.928Z,988.89
2019-02-17T04:44:41.951Z,988.62
2019-02-17T04:45:41.902Z,988.76
2019-02-17T04:46:41.895Z,988.78
2019-02-17T04:47:41.893Z,988.61
2019-02-17T04:48:41.874Z,988.62
2019-02-17T04:49:41.861Z,988.78
2019-02-17T04:50:42.020Z,988.65
2019-02-17T04:51:41.837Z,988.75
2019-02-17T04:52:41.827Z,988.72
2019-02-17T04:53:51.806Z,988.72
2019-02-17T04:54:41.811Z,988.66
2019-02-17T04:55:41.800Z,988.71
2019-02-17T04:56:41.824Z,988.74
2019-02-17T04:57:41.777Z,988.63
2019-02-17T04:58:41.776Z,988.80
2019-02-17T04:59:41.755Z,988.71
2019-02-17T05:00:41.748Z,988.74
2019-02-17T05:01:41.748Z,988.68
2019-02-17T05:02:41.760Z,988.72
2019-02-17T05:03:41.712Z,988.75
2019-02-17T05:04:41.699Z,988.79
2019-02-17T05:05:41.693Z,988.79
2019-02-17T05:06:41.693Z,988.68
2019-02-17T05:07:41.670Z,988.66
2019-02-17T05:08:41.681Z,988.78
2019-02-17T05:09:41.652Z,988.87
2019-02-17T05:10:41.638Z,989.02
2019-02-17T05:11:41.630Z,988.94
2019-02-17T05:12:41.630Z,988.91
2019-02-17T05:13:41.651Z,988.85
2019-02-17T05:14:41.603Z,988.84
2019-02-17T05:15:41.590Z,988.93
2019-02-17T05:16:41.580Z,989.00
2019-02-17T05:17:41.602Z,989.12
2019-02-17T05:18:41.560Z,989.05
2019-02-17T05:19:41.588Z,988.97
2019-02-17T05:20:41.544Z,989.02
2019-02-17T05:21:41.527Z,989.10
2019-02-17T05:22:41.515Z,989.14
2019-02-17T05:23:41.501Z,988.96
2019-02-17T05:24:51.890Z,989.09
2019-02-17T05:25:41.488Z,989.30
2019-02-17T05:26:41.481Z,989.25
2019-02-17T05:27:41.468Z,989.24
2019-02-17T05:28:41.458Z,989.19
2019-02-17T05:29:41.445Z,989.23
2019-02-17T05:30:52.143Z,989.31
2019-02-17T05:31:42.424Z,989.30
2019-02-17T05:32:41.431Z,989.36
2019-02-17T05:33:41.449Z,989.28
2019-02-17T05:34:41.393Z,989.41
2019-02-17T05:35:41.382Z,989.48
2019-02-17T05:36:41.413Z,989.41
2019-02-17T05:37:41.357Z,989.41
2019-02-17T05:38:41.353Z,989.47
2019-02-17T05:39:41.373Z,989.47
2019-02-17T05:40:41.331Z,989.30
2019-02-17T05:41:41.314Z,989.42
2019-02-17T05:42:41.376Z,989.36
2019-02-17T05:43:41.304Z,989.44
2019-02-17T05:44:41.295Z,989.51
2019-02-17T05:45:41.285Z,989.45
2019-02-17T05:46:41.260Z,989.51
2019-02-17T05:47:41.249Z,989.49
2019-02-17T05:48:41.338Z,989.50
2019-02-17T05:49:41.235Z,989.38
2019-02-17T05:50:41.220Z,989.46
2019-02-17T05:51:41.224Z,989.52
2019-02-17T05:52:41.206Z,989.51
2019-02-17T05:53:41.191Z,989.57
2019-02-17T05:54:41.215Z,989.53
2019-02-17T05:55:51.222Z,989.27
2019-02-17T05:56:41.159Z,989.61
2019-02-17T05:57:41.150Z,989.63
2019-02-17T05:58:41.140Z,989.62
2019-02-17T05:59:41.130Z,989.74
2019-02-17T06:00:41.192Z,989.56
2019-02-17T06:01:41.105Z,989.67
2019-02-17T06:02:41.097Z,989.61
2019-02-17T06:03:41.082Z,989.57
2019-02-17T06:04:41.078Z,989.70
2019-02-17T06:05:41.073Z,989.77
2019-02-17T06:06:41.096Z,989.67
2019-02-17T06:07:41.038Z,989.72
2019-02-17T06:08:41.036Z,989.72
2019-02-17T06:09:41.019Z,989.86
2019-02-17T06:10:41.025Z,989.77
2019-02-17T06:11:40.999Z,989.88
2019-02-17T06:12:41.003Z,989.87
2019-02-17T06:13:40.976Z,989.82
2019-02-17T06:14:40.971Z,989.83
2019-02-17T06:15:40.956Z,989.90
2019-02-17T06:16:40.960Z,989.77
2019-02-17T06:17:40.986Z,989.91
2019-02-17T06:18:40.930Z,989.71
2019-02-17T06:19:40.920Z,989.95
2019-02-17T06:20:40.903Z,990.02
2019-02-17T06:21:40.899Z,989.98
2019-02-17T06:22:40.885Z,989.89
2019-02-17T06:23:41.380Z,990.02
2019-02-17T06:24:40.874Z,990.07
2019-02-17T06:25:40.855Z,989.94
2019-02-17T06:26:51.526Z,990.06
2019-02-17T06:27:40.833Z,990.01
2019-02-17T06:28:40.852Z,989.77
2019-02-17T06:29:40.813Z,990.10
2019-02-17T06:30:40.807Z,990.07
2019-02-17T06:31:40.792Z,990.09
2019-02-17T06:32:40.783Z,990.08
2019-02-17T06:33:40.781Z,990.01
2019-02-17T06:34:40.798Z,990.09
2019-02-17T06:35:40.745Z,990.08
2019-02-17T06:36:41.070Z,990.31
2019-02-17T06:37:40.724Z,990.15
2019-02-17T06:38:40.714Z,990.21
2019-02-17T06:39:40.704Z,990.37
2019-02-17T06:40:40.741Z,990.19
2019-02-17T06:41:40.691Z,990.24
2019-02-17T06:42:40.677Z,990.32
2019-02-17T06:43:40.664Z,990.26
2019-02-17T06:44:40.654Z,990.48
2019-02-17T06:45:40.641Z,990.41
2019-02-17T06:46:40.671Z,990.50
2019-02-17T06:47:40.632Z,990.42
2019-02-17T06:48:40.613Z,990.43
2019-02-17T06:49:40.602Z,990.22
2019-02-17T06:50:40.588Z,990.55
2019-02-17T06:51:40.578Z,990.67
2019-02-17T06:52:40.609Z,990.49
2019-02-17T06:53:40.559Z,990.59
2019-02-17T06:54:40.558Z,990.60
2019-02-17T06:55:40.541Z,990.56
2019-02-17T06:56:40.522Z,990.70
2019-02-17T06:57:51.451Z,990.62
2019-02-17T06:58:40.510Z,990.74
2019-02-17T06:59:40.492Z,990.69
2019-02-17T07:00:40.485Z,990.72
2019-02-17T07:01:40.476Z,990.85
2019-02-17T07:02:40.465Z,990.89
2019-02-17T07:03:40.464Z,990.91
2019-02-17T07:04:40.442Z,990.88
2019-02-17T07:05:40.440Z,990.95
2019-02-17T07:06:40.420Z,990.90
2019-02-17T07:07:40.434Z,990.93
2019-02-17T07:08:40.398Z,990.93
2019-02-17T07:09:40.406Z,991.03
2019-02-17T07:10:40.377Z,991.06
2019-02-17T07:11:40.372Z,991.12
2019-02-17T07:12:42.557Z,991.05
2019-02-17T07:13:40.344Z,990.98
2019-02-17T07:14:40.330Z,991.06
2019-02-17T07:15:40.439Z,991.22
2019-02-17T07:16:40.320Z,991.34
2019-02-17T07:17:40.301Z,991.08
2019-02-17T07:18:40.287Z,991.17
2019-02-17T07:19:40.280Z,991.23
2019-02-17T07:20:40.267Z,991.39
2019-02-17T07:21:40.296Z,991.25
2019-02-17T07:22:40.247Z,991.51
2019-02-17T07:23:40.235Z,991.39
2019-02-17T07:24:40.227Z,991.34
2019-02-17T07:25:40.218Z,991.34
2019-02-17T07:26:40.210Z,991.40
2019-02-17T07:27:40.399Z,991.30
2019-02-17T07:28:50.343Z,991.38
2019-02-17T07:29:40.209Z,991.39
2019-02-17T07:30:40.162Z,991.42
2019-02-17T07:31:40.152Z,991.46
2019-02-17T07:32:40.140Z,991.42
2019-02-17T07:33:40.140Z,991.42
2019-02-17T07:34:40.123Z,991.61
2019-02-17T07:35:40.114Z,991.55
2019-02-17T07:36:40.120Z,991.53
2019-02-17T07:37:40.129Z,991.63
2019-02-17T07:38:40.076Z,991.63
2019-02-17T07:39:40.064Z,991.75
2019-02-17T07:40:40.059Z,991.93
2019-02-17T07:41:40.060Z,991.76
2019-02-17T07:42:40.033Z,991.74
2019-02-17T07:43:40.067Z,991.83
2019-02-17T07:44:40.548Z,991.83
2019-02-17T07:45:40.001Z,991.94
2019-02-17T07:46:40.023Z,992.02
2019-02-17T07:47:39.981Z,991.79
2019-02-17T07:48:39.978Z,991.95
2019-02-17T07:49:39.999Z,991.99
2019-02-17T07:50:39.950Z,991.90
2019-02-17T07:51:39.941Z,992.08
2019-02-17T07:52:39.928Z,992.16
2019-02-17T07:53:39.918Z,991.97
2019-02-17T07:54:39.917Z,992.11
2019-02-17T07:55:39.916Z,992.12
2019-02-17T07:56:39.888Z,992.09
2019-02-17T07:57:39.876Z,992.05
2019-02-17T07:58:39.867Z,992.16
2019-02-17T07:59:50.603Z,991.89
2019-02-17T08:00:39.839Z,992.03
2019-02-17T08:01:45.293Z,992.19
2019-02-17T08:02:40.825Z,992.17
2019-02-17T08:03:39.810Z,992.15
2019-02-17T08:04:39.800Z,992.16
2019-02-17T08:05:39.786Z,992.12
2019-02-17T08:06:39.776Z,992.02
2019-02-17T08:07:39.813Z,992.23
2019-02-17T08:08:39.760Z,992.21
2019-02-17T08:09:39.749Z,992.16
2019-02-17T08:10:39.745Z,992.32
2019-02-17T08:11:39.733Z,991.94
2019-02-17T08:12:39.715Z,992.29
2019-02-17T08:13:39.970Z,992.30
2019-02-17T08:14:39.696Z,992.38
2019-02-17T08:15:39.683Z,992.30
2019-02-17T08:16:39.676Z,992.40
2019-02-17T08:17:39.664Z,992.32
2019-02-17T08:18:39.667Z,992.42
2019-02-17T08:19:39.659Z,992.58
2019-02-17T08:20:39.629Z,991.91
2019-02-17T08:21:39.620Z,992.53
2019-02-17T08:22:39.612Z,992.48
2019-02-17T08:23:39.599Z,992.59
2019-02-17T08:24:39.599Z,992.53
2019-02-17T08:25:39.748Z,992.61
2019-02-17T08:26:39.604Z,992.64
2019-02-17T08:27:39.554Z,992.55
2019-02-17T08:28:39.543Z,992.71
2019-02-17T08:29:39.537Z,992.66
2019-02-17T08:30:49.469Z,992.75
2019-02-17T08:31:39.514Z,992.76
2019-02-17T08:32:39.500Z,992.74
2019-02-17T08:33:39.491Z,992.84
2019-02-17T08:34:39.484Z,992.74
2019-02-17T08:35:39.556Z,992.89
2019-02-17T08:36:39.461Z,992.85
2019-02-17T08:37:39.468Z,992.83
2019-02-17T08:38:39.440Z,992.88
2019-02-17T08:39:39.436Z,992.96
2019-02-17T08:40:39.418Z,993.06
2019-02-17T08:41:39.442Z,993.02
2019-02-17T08:42:39.393Z,993.02
2019-02-17T08:43:39.390Z,993.14
2019-02-17T08:44:39.386Z,993.27
2019-02-17T08:45:39.366Z,993.28
2019-02-17T08:46:39.349Z,993.28
2019-02-17T08:47:39.377Z,993.41
2019-02-17T08:48:39.336Z,993.25
2019-02-17T08:49:39.322Z,993.14
2019-02-17T08:50:39.315Z,993.25
2019-02-17T08:51:39.306Z,993.04
2019-02-17T08:52:39.284Z,993.19
2019-02-17T08:53:39.310Z,993.18
2019-02-17T08:54:39.271Z,993.06
2019-02-17T08:55:39.258Z,993.26
2019-02-17T08:56:39.249Z,993.28
2019-02-17T08:57:39.252Z,993.29
2019-02-17T08:58:39.240Z,993.41
2019-02-17T08:59:39.241Z,993.31
2019-02-17T09:00:39.204Z,993.39
2019-02-17T09:01:49.013Z,993.51
2019-02-17T09:02:40.814Z,993.51
2019-02-17T09:03:39.165Z,993.52
2019-02-17T09:04:39.171Z,993.48
2019-02-17T09:05:44.269Z,993.59
2019-02-17T09:06:40.137Z,993.48
2019-02-17T09:07:39.124Z,993.45
2019-02-17T09:08:39.115Z,993.61
2019-02-17T09:09:39.106Z,993.52
2019-02-17T09:10:39.141Z,993.62
2019-02-17T09:11:39.085Z,993.76
2019-02-17T09:12:39.071Z,993.74
2019-02-17T09:13:39.071Z,993.80
2019-02-17T09:14:39.052Z,993.85
2019-02-17T09:15:47.043Z,993.85
2019-02-17T09:16:39.063Z,993.89
2019-02-17T09:17:39.019Z,993.86
2019-02-17T09:18:39.009Z,993.93
2019-02-17T09:19:38.997Z,993.77
2019-02-17T09:20:39.000Z,993.99
2019-02-17T09:21:38.973Z,994.00
2019-02-17T09:22:39.008Z,993.96
2019-02-17T09:23:38.956Z,994.04
2019-02-17T09:24:38.945Z,994.12
2019-02-17T09:25:38.929Z,994.03
2019-02-17T09:26:38.926Z,994.15
2019-02-17T09:27:38.925Z,994.25
2019-02-17T09:28:38.928Z,994.09
2019-02-17T09:29:38.888Z,994.20
2019-02-17T09:30:38.881Z,994.35
2019-02-17T09:31:38.890Z,994.31
2019-02-17T09:32:38.858Z,994.29
2019-02-17T09:33:38.881Z,994.43
2019-02-17T09:34:38.866Z,994.54
2019-02-17T09:35:38.830Z,994.56
2019-02-17T09:36:38.815Z,994.46
2019-02-17T09:37:38.809Z,994.31
2019-02-17T09:38:38.795Z,994.64
2019-02-17T09:39:38.857Z,994.62
2019-02-17T09:40:38.767Z,994.57
2019-02-17T09:41:38.760Z,994.44
2019-02-17T09:42:38.749Z,994.58
2019-02-17T09:43:38.738Z,994.59
2019-02-17T09:44:38.733Z,994.68
2019-02-17T09:45:38.789Z,994.55
2019-02-17T09:46:48.869Z,994.72
2019-02-17T09:47:38.698Z,994.58
2019-02-17T09:48:38.690Z,994.69
2019-02-17T09:49:38.677Z,994.68
2019-02-17T09:50:38.669Z,994.69
2019-02-17T09:51:38.690Z,994.63
2019-02-17T09:52:38.653Z,994.64
2019-02-17T09:53:38.631Z,994.93
2019-02-17T09:54:38.621Z,994.74
2019-02-17T09:55:38.621Z,994.66
2019-02-17T09:56:38.604Z,994.86
2019-02-17T09:57:38.618Z,994.82
2019-02-17T09:58:38.586Z,994.86
2019-02-17T09:59:38.575Z,994.78
2019-02-17T10:00:38.587Z,994.86
2019-02-17T10:01:38.555Z,994.89
2019-02-17T10:02:38.584Z,994.93
2019-02-17T10:03:38.531Z,994.92
2019-02-17T10:04:38.530Z,994.82
2019-02-17T10:05:38.514Z,994.93
2019-02-17T10:06:38.513Z,994.99
2019-02-17T10:07:38.498Z,994.99
2019-02-17T10:08:38.515Z,995.01
2019-02-17T10:09:38.469Z,995.08
2019-02-17T10:10:38.456Z,995.12
2019-02-17T10:11:38.455Z,995.21
2019-02-17T10:12:38.439Z,995.31
2019-02-17T10:13:38.434Z,995.13
2019-02-17T10:14:38.554Z,995.14
2019-02-17T10:15:38.404Z,995.29
2019-02-17T10:16:38.401Z,995.30
2019-02-17T10:17:48.625Z,995.10
2019-02-17T10:18:38.371Z,995.20
2019-02-17T10:19:38.370Z,995.36
2019-02-17T10:20:38.386Z,995.27
2019-02-17T10:21:38.346Z,995.40
2019-02-17T10:22:38.336Z,995.37
2019-02-17T10:23:38.329Z,995.44
2019-02-17T10:24:38.317Z,995.54
2019-02-17T10:25:38.305Z,995.68
2019-02-17T10:26:38.334Z,995.52
2019-02-17T10:27:38.287Z,995.77
2019-02-17T10:28:42.304Z,995.70
2019-02-17T10:29:38.263Z,995.63
2019-02-17T10:30:38.250Z,995.61
2019-02-17T10:31:38.255Z,995.81
2019-02-17T10:32:39.258Z,995.68
2019-02-17T10:33:38.224Z,995.79
2019-02-17T10:34:38.213Z,995.68
2019-02-17T10:35:40.386Z,995.85
2019-02-17T10:36:38.213Z,995.91
2019-02-17T10:37:38.223Z,995.95
2019-02-17T10:38:38.175Z,995.88
2019-02-17T10:39:38.167Z,996.10
2019-02-17T10:40:38.163Z,995.96
2019-02-17T10:41:38.141Z,996.10
2019-02-17T10:42:38.145Z,996.17
2019-02-17T10:43:38.161Z,996.16
2019-02-17T10:44:38.110Z,996.27
2019-02-17T10:45:38.104Z,996.33
2019-02-17T10:46:38.086Z,996.38
2019-02-17T10:47:38.082Z,996.45
2019-02-17T10:48:50.152Z,996.52
2019-02-17T10:49:38.055Z,996.56
2019-02-17T10:50:38.045Z,996.54
2019-02-17T10:51:38.043Z,996.67
2019-02-17T10:52:38.027Z,996.64
2019-02-17T10:53:38.017Z,996.69
2019-02-17T10:54:38.046Z,996.78
2019-02-17T10:55:38.009Z,996.72
2019-02-17T10:56:37.992Z,996.80
2019-02-17T10:57:37.977Z,996.83
2019-02-17T10:58:37.968Z,996.94
2019-02-17T10:59:37.957Z,996.85
2019-02-17T11:00:37.994Z,996.96
2019-02-17T11:01:37.936Z,996.93
2019-02-17T11:02:46.709Z,997.01
2019-02-17T11:03:38.915Z,997.03
2019-02-17T11:04:37.923Z,997.17
2019-02-17T11:05:37.907Z,997.09
2019-02-17T11:06:37.959Z,997.15
2019-02-17T11:07:37.881Z,997.20
2019-02-17T11:08:37.872Z,997.29
2019-02-17T11:09:37.855Z,997.18
2019-02-17T11:10:37.859Z,997.20
2019-02-17T11:11:37.839Z,997.25
2019-02-17T11:12:37.856Z,997.04
2019-02-17T11:13:37.826Z,996.70
2019-02-17T11:14:37.829Z,996.94
2019-02-17T11:15:37.895Z,997.23
2019-02-17T11:16:37.817Z,997.30
2019-02-17T11:17:38.166Z,997.39
2019-02-17T11:18:37.780Z,997.46
2019-02-17T11:19:48.139Z,997.49
2019-02-17T11:20:37.750Z,997.67
2019-02-17T11:21:37.734Z,997.72
2019-02-17T11:22:37.728Z,997.69
2019-02-17T11:23:37.749Z,997.39
2019-02-17T11:24:37.704Z,997.86
2019-02-17T11:25:37.699Z,997.71
2019-02-17T11:26:37.687Z,997.92
2019-02-17T11:27:37.674Z,997.82
2019-02-17T11:28:37.671Z,997.80
2019-02-17T11:29:37.699Z,997.87
2019-02-17T11:30:37.644Z,997.94
2019-02-17T11:31:37.640Z,997.98
2019-02-17T11:32:37.628Z,998.02
2019-02-17T11:33:37.620Z,998.00
2019-02-17T11:34:37.601Z,997.91
2019-02-17T11:35:37.855Z,997.93
2019-02-17T11:36:37.589Z,998.08
2019-02-17T11:37:37.607Z,998.14
2019-02-17T11:38:37.625Z,998.13
2019-02-17T11:39:37.567Z,998.15
2019-02-17T11:40:37.547Z,998.17
2019-02-17T11:41:37.575Z,998.19
2019-02-17T11:42:37.526Z,998.24
2019-02-17T11:43:37.525Z,998.28
2019-02-17T11:44:37.512Z,998.18
2019-02-17T11:45:37.492Z,998.20
2019-02-17T11:46:37.481Z,998.32
2019-02-17T11:47:37.633Z,998.31
2019-02-17T11:48:37.464Z,998.34
2019-02-17T11:49:37.453Z,998.35
2019-02-17T11:50:47.849Z,998.38
2019-02-17T11:51:37.433Z,998.39
2019-02-17T11:52:37.421Z,998.38
2019-02-17T11:53:37.538Z,998.36
2019-02-17T11:54:37.402Z,998.41
2019-02-17T11:55:37.393Z,998.45
2019-02-17T11:56:37.386Z,998.52
2019-02-17T11:57:37.376Z,998.43
2019-02-17T11:58:37.367Z,998.48
2019-02-17T11:59:37.395Z,998.43
2019-02-17T12:00:37.362Z,998.50
2019-02-17T12:01:37.336Z,998.55
2019-02-17T12:02:37.325Z,998.51
2019-02-17T12:03:37.323Z,998.48
2019-02-17T12:04:37.303Z,998.60
2019-02-17T12:05:37.326Z,998.61
2019-02-17T12:06:37.282Z,998.53
2019-02-17T12:07:37.270Z,998.63
2019-02-17T12:08:37.269Z,998.72
2019-02-17T12:09:37.254Z,998.68
2019-02-17T12:10:37.245Z,998.71
2019-02-17T12:11:37.270Z,998.76
2019-02-17T12:12:37.228Z,998.83
2019-02-17T12:13:37.210Z,998.90
2019-02-17T12:14:37.200Z,998.75
2019-02-17T12:15:37.195Z,998.82
2019-02-17T12:16:37.441Z,998.82
2019-02-17T12:17:37.215Z,998.86
2019-02-17T12:18:37.161Z,998.91
2019-02-17T12:19:37.150Z,998.87
2019-02-17T12:20:37.149Z,998.94
2019-02-17T12:21:47.685Z,999.05
2019-02-17T12:22:37.120Z,999.01
2019-02-17T12:23:37.154Z,999.04
2019-02-17T12:24:37.101Z,999.22
2019-02-17T12:25:37.095Z,999.08
2019-02-17T12:26:37.076Z,999.12
2019-02-17T12:27:37.069Z,999.18
2019-02-17T12:28:37.067Z,999.23